Time;durP1;ratioP1;P1;durP2;ratioP2;P2;SDS_P1;SDS_P2;PMS_P1;PMS_P2;Temp;Humidity;BMP_temperature;BMP_pressure;BME280_temperature;BME280_humidity;BME280_pressure;Samples;Min_cycle;Max_cycle;Signal;HPM_P1;HPM_P2
2022/05/16 00:00:27;;;;;;;2.22;1.50;;;10.60;79.80;;;;;;5015398;28;20034;-84
2022/05/16 00:02:54;;;;;;;;;;;10.60;79.70;;;;;;5015913;28;20014;-84
2022/05/16 00:05:21;;;;;;;1.50;1.33;;;10.60;79.10;;;;;;5015592;28;19912;-83
2022/05/16 00:07:47;;;;;;;2.63;1.58;;;10.60;79.10;;;;;;5018313;28;20121;-83
2022/05/16 00:10:13;;;;;;;2.47;1.48;;;10.60;79.10;;;;;;5015730;28;20030;-82
2022/05/16 00:12:41;;;;;;;4.53;1.63;;;10.60;79.30;;;;;;5020204;28;20018;-83
2022/05/16 00:15:09;;;;;;;4.60;2.67;;;10.60;79.20;;;;;;5034177;28;20034;-81
2022/05/16 00:17:35;;;;;;;2.42;1.27;;;10.60;79.10;;;;;;5036570;28;20018;-81
2022/05/16 00:20:01;;;;;;;2.10;1.67;;;10.60;79.30;;;;;;5021356;28;20173;-83
2022/05/16 00:22:27;;;;;;;2.53;1.40;;;10.60;79.10;;;;;;5016416;28;20502;-84
2022/05/16 00:24:53;;;;;;;2.58;1.67;;;10.60;79.00;;;;;;5007259;28;20346;-82
2022/05/16 00:27:19;;;;;;;3.95;1.63;;;10.60;79.10;;;;;;5014665;28;20040;-85
2022/05/16 00:29:45;;;;;;;1.48;1.38;;;10.60;79.30;;;;;;5036491;28;20045;-83
2022/05/16 00:32:13;;;;;;;1.70;1.27;;;10.60;79.00;;;;;;5040498;28;20030;-83
2022/05/16 00:34:39;;;;;;;4.47;1.83;;;10.60;79.00;;;;;;5004580;28;20066;-83
2022/05/16 00:37:05;;;;;;;9.52;1.45;;;10.60;79.00;;;;;;4994640;28;20029;-83
2022/05/16 00:39:32;;;;;;;1.45;1.35;;;10.50;79.20;;;;;;4994494;28;20042;-82
2022/05/16 00:41:58;;;;;;;1.85;1.40;;;10.50;79.70;;;;;;4994760;28;20023;-83
2022/05/16 00:44:25;;;;;;;1.75;1.30;;;10.40;80.10;;;;;;4976989;28;20084;-82
2022/05/16 00:46:51;;;;;;;1.60;1.50;;;10.40;80.40;;;;;;4994489;28;20477;-82
2022/05/16 00:49:31;;;;;;;1.92;1.15;;;10.40;80.80;;;;;;4994349;28;20029;-82
2022/05/16 00:52:17;;;;;;;3.80;2.10;;;10.40;81.00;;;;;;4994356;28;20058;-83
2022/05/16 00:55:00;;;;;;;1.85;1.30;;;10.40;81.10;;;;;;4993654;28;20388;-84
2022/05/16 00:57:34;;;;;;;2.13;1.20;;;10.40;80.90;;;;;;4994326;28;20476;-84
2022/05/16 01:00:14;;;;;;;1.83;1.42;;;10.30;81.00;;;;;;4976990;28;20094;-82
2022/05/16 01:05:29;;;;;;;4.20;1.42;;;10.30;81.00;;;;;;4995228;28;20073;-84
2022/05/16 01:07:59;;;;;;;2.13;1.40;;;10.20;80.90;;;;;;4977668;28;20514;-81
2022/05/16 01:10:26;;;;;;;1.95;1.60;;;10.20;81.20;;;;;;4994701;28;20025;-81
2022/05/16 01:12:53;;;;;;;4.60;1.55;;;10.10;81.20;;;;;;5000420;28;20041;-83
2022/05/16 01:15:28;;;;;;;2.63;1.40;;;10.10;81.20;;;;;;4994714;28;20542;-83
2022/05/16 01:17:54;;;;;;;6.43;1.75;;;10.00;81.30;;;;;;4993931;28;20026;-82
2022/05/16 01:20:20;;;;;;;1.98;1.40;;;10.00;81.60;;;;;;4993807;28;20507;-83
2022/05/16 01:22:49;;;;;;;2.58;1.25;;;9.90;81.80;;;;;;4993646;28;20106;-84
2022/05/16 01:25:27;;;;;;;3.92;1.55;;;9.90;82.00;;;;;;4993326;28;20121;-82
2022/05/16 01:27:56;;;;;;;2.00;1.40;;;9.80;81.90;;;;;;5007318;28;20026;-84
2022/05/16 01:30:28;;;;;;;1.90;1.30;;;9.80;82.00;;;;;;5013140;28;20084;-85
2022/05/16 01:32:54;;;;;;;2.90;1.10;;;9.80;82.20;;;;;;5012801;28;20030;-85
2022/05/16 01:35:26;;;;;;;1.60;1.50;;;9.80;82.30;;;;;;5013605;28;20079;-83
2022/05/16 01:40:37;;;;;;;2.10;1.50;;;9.70;82.40;;;;;;4993541;28;20076;-85
2022/05/16 01:43:04;;;;;;;4.43;1.20;;;9.70;82.30;;;;;;4993704;28;20022;-85
2022/05/16 01:45:30;;;;;;;2.65;2.22;;;9.70;82.10;;;;;;4976542;28;20030;-82
2022/05/16 01:47:56;;;;;;;2.42;1.58;;;9.70;81.90;;;;;;4976382;28;20054;-84
2022/05/16 01:50:22;;;;;;;2.75;2.17;;;9.80;81.90;;;;;;4993307;28;20368;-86
2022/05/16 01:52:48;;;;;;;4.03;1.60;;;9.70;81.70;;;;;;4993371;28;20460;-85
2022/05/16 01:55:16;;;;;;;1.17;1.00;;;9.70;81.60;;;;;;4993525;28;20037;-84
2022/05/16 01:57:42;;;;;;;1.23;1.13;;;9.70;81.50;;;;;;4996476;28;20085;-84
2022/05/16 02:00:11;;;;;;;1.83;1.27;;;9.70;81.40;;;;;;4993128;28;20066;-84
2022/05/16 02:02:41;;;;;;;1.77;1.00;;;9.80;81.50;;;;;;4993318;28;20045;-83
2022/05/16 02:05:07;;;;;;;2.38;1.77;;;9.70;81.30;;;;;;4993299;28;20038;-84
2022/05/16 02:07:33;;;;;;;2.05;1.40;;;9.70;81.30;;;;;;4994715;28;20403;-85
2022/05/16 02:10:01;;;;;;;1.98;1.58;;;9.70;81.30;;;;;;4993610;28;20027;-83
2022/05/16 02:12:26;;;;;;;2.47;1.35;;;9.70;81.40;;;;;;4993311;28;20033;-85
2022/05/16 02:14:52;;;;;;;2.22;1.23;;;9.70;81.50;;;;;;4992805;28;20027;-84
2022/05/16 02:17:18;;;;;;;2.17;1.27;;;9.70;81.40;;;;;;4994086;28;20484;-84
2022/05/16 02:19:44;;;;;;;3.30;1.35;;;9.70;81.30;;;;;;4993717;28;20043;-85
2022/05/16 02:24:53;;;;;;;1.27;1.10;;;9.70;81.50;;;;;;5008915;28;20042;-83
2022/05/16 02:27:19;;;;;;;2.00;1.40;;;9.70;81.70;;;;;;5009938;28;20023;-80
2022/05/16 02:29:45;;;;;;;1.85;1.55;;;9.70;81.80;;;;;;5013709;28;20074;-84
2022/05/16 02:32:12;;;;;;;2.70;1.35;;;9.60;81.80;;;;;;4992818;28;20030;-83
2022/05/16 02:34:39;;;;;;;1.70;1.25;;;9.60;81.90;;;;;;4998273;28;20030;-82
2022/05/16 02:37:06;;;;;;;2.08;1.50;;;9.60;82.10;;;;;;5014196;28;20022;-82
2022/05/16 02:39:32;;;;;;;2.70;1.25;;;9.60;82.20;;;;;;4995543;28;20037;-83
2022/05/16 02:41:58;;;;;;;3.22;1.45;;;9.60;82.30;;;;;;5014541;28;20026;-83
2022/05/16 02:44:24;;;;;;;3.03;1.20;;;9.60;82.20;;;;;;5014168;28;20551;-81
2022/05/16 02:46:50;;;;;;;1.98;1.15;;;9.50;82.30;;;;;;5013216;28;20018;-83
2022/05/16 02:49:16;;;;;;;1.85;1.40;;;9.60;82.50;;;;;;5012861;28;20130;-83
2022/05/16 02:51:42;;;;;;;1.38;1.08;;;9.60;82.60;;;;;;5012288;28;20068;-82
2022/05/16 02:54:08;;;;;;;4.95;1.25;;;9.60;82.50;;;;;;5013121;28;20034;-83
2022/05/16 02:56:34;;;;;;;2.95;1.35;;;9.60;82.30;;;;;;5012838;28;20549;-82
2022/05/16 02:59:00;;;;;;;3.63;1.02;;;9.60;82.10;;;;;;5011473;28;20483;-84
2022/05/16 03:01:26;;;;;;;1.25;1.15;;;9.70;81.80;;;;;;5011962;28;20065;-84
2022/05/16 03:03:51;;;;;;;1.95;1.25;;;9.70;81.50;;;;;;5012137;28;20032;-85
2022/05/16 03:06:18;;;;;;;1.27;1.17;;;9.70;81.00;;;;;;5012289;28;20027;-84
2022/05/16 03:08:44;;;;;;;2.75;1.05;;;9.70;80.90;;;;;;5011828;28;20361;-83
2022/05/16 03:11:10;;;;;;;2.25;1.38;;;9.70;80.80;;;;;;5011951;28;20026;-83
2022/05/16 03:13:36;;;;;;;4.38;1.20;;;9.60;80.90;;;;;;5012083;28;20117;-83
2022/05/16 03:16:02;;;;;;;3.17;1.10;;;9.60;80.80;;;;;;5013552;28;20057;-82
2022/05/16 03:18:30;;;;;;;2.30;1.30;;;9.60;80.80;;;;;;5019536;28;20026;-81
2022/05/16 03:20:56;;;;;;;;;;;9.60;80.80;;;;;;5016949;28;20026;-81
2022/05/16 03:23:22;;;;;;;1.70;1.30;;;9.70;80.70;;;;;;5016537;28;19960;-82
2022/05/16 03:25:49;;;;;;;1.83;1.13;;;9.60;80.70;;;;;;4997983;28;20049;-83
2022/05/16 03:28:15;;;;;;;2.53;1.17;;;9.60;80.70;;;;;;4997868;28;20456;-83
2022/05/16 03:30:42;;;;;;;2.30;1.05;;;9.60;80.60;;;;;;4997541;28;20058;-82
2022/05/16 03:33:08;;;;;;;1.63;1.20;;;9.60;80.50;;;;;;5003478;28;20037;-83
2022/05/16 03:35:34;;;;;;;2.70;1.40;;;9.60;80.50;;;;;;4999234;28;20022;-83
2022/05/16 03:38:00;;;;;;;1.20;1.10;;;9.50;80.50;;;;;;4996055;28;20521;-83
2022/05/16 03:40:45;;;;;;;1.33;0.90;;;9.50;80.60;;;;;;4995570;28;20034;-81
2022/05/16 03:43:13;;;;;;;3.78;1.30;;;9.50;80.60;;;;;;4978415;28;20522;-81
2022/05/16 03:45:38;;;;;;;;;;;9.50;80.60;;;;;;4996456;28;20031;-83
2022/05/16 03:48:08;;;;;;;2.08;1.25;;;9.50;80.40;;;;;;4996165;28;20434;-83
2022/05/16 03:50:35;;;;;;;2.05;1.00;;;9.50;80.70;;;;;;4996742;28;20037;-83
2022/05/16 03:53:01;;;;;;;4.32;1.27;;;9.50;80.60;;;;;;4996064;28;20027;-81
2022/05/16 03:55:29;;;;;;;1.58;1.08;;;9.50;80.60;;;;;;4995432;28;20554;-81
2022/05/16 03:57:55;;;;;;;;;;;9.40;80.40;;;;;;4996238;28;20026;-82
2022/05/16 04:00:21;;;;;;;2.03;1.10;;;9.50;80.30;;;;;;5002262;28;19944;-81
2022/05/16 04:02:47;;;;;;;3.53;1.23;;;9.50;80.50;;;;;;4991157;28;20027;-84
2022/05/16 04:05:20;;;;;;;6.25;1.65;;;9.50;80.70;;;;;;5004158;28;20022;-85
2022/05/16 04:07:47;;;;;;;2.60;1.15;;;9.60;80.30;;;;;;5003442;28;20030;-86
2022/05/16 04:10:14;;;;;;;2.80;1.20;;;9.70;80.50;;;;;;5004846;28;20027;-85
2022/05/16 04:12:41;;;;;;;1.73;1.33;;;9.90;79.90;;;;;;4995901;28;20037;-85
2022/05/16 04:15:08;;;;;;;1.50;0.90;;;10.00;78.90;;;;;;4995507;28;20076;-84
2022/05/16 04:17:34;;;;;;;3.63;1.38;;;10.20;78.40;;;;;;4995263;28;20072;-85
2022/05/16 04:20:00;;;;;;;1.00;0.90;;;10.30;78.00;;;;;;4995230;28;20034;-87
2022/05/16 04:22:26;;;;;;;1.55;1.00;;;10.50;76.90;;;;;;4995588;28;20041;-85
2022/05/16 04:24:52;;;;;;;1.55;1.20;;;10.60;76.00;;;;;;4996857;28;20026;-85
2022/05/16 04:27:18;;;;;;;2.63;1.20;;;10.70;75.60;;;;;;4997844;28;20033;-83
2022/05/16 04:29:44;;;;;;;2.33;1.10;;;10.90;74.90;;;;;;5006044;28;20104;-83
2022/05/16 04:32:10;;;;;;;2.80;0.90;;;10.90;74.60;;;;;;5008762;28;20081;-86
2022/05/16 04:34:36;;;;;;;2.42;0.98;;;11.10;73.60;;;;;;4995728;28;20109;-83
2022/05/16 04:37:21;;;;;;;2.72;1.02;;;11.20;73.20;;;;;;4997276;28;20030;-84
2022/05/16 04:39:47;;;;;;;1.67;1.00;;;11.30;73.20;;;;;;4979877;28;20490;-84
2022/05/16 04:44:57;;;;;;;2.88;0.80;;;11.40;72.20;;;;;;5006031;28;20061;-86
2022/05/16 04:47:23;;;;;;;4.90;1.25;;;11.50;71.40;;;;;;4999207;28;20636;-86
2022/05/16 04:49:49;;;;;;;4.38;1.02;;;11.50;71.40;;;;;;4996683;28;20471;-85
2022/05/16 04:52:15;;;;;;;1.55;0.75;;;11.60;71.10;;;;;;4996924;28;20029;-86
2022/05/16 04:54:41;;;;;;;1.85;0.90;;;11.70;70.70;;;;;;4995523;28;20117;-86
2022/05/16 04:57:07;;;;;;;1.27;0.90;;;12.30;70.00;;;;;;4995339;28;20109;-88
2022/05/16 04:59:33;;;;;;;5.40;1.15;;;13.30;66.70;;;;;;4995546;28;20034;-86
2022/05/16 05:01:59;;;;;;;1.90;0.70;;;14.10;62.80;;;;;;4996032;28;20026;-88
2022/05/16 05:04:25;;;;;;;1.83;0.90;;;14.60;60.80;;;;;;4996849;28;20030;-86
2022/05/16 05:06:51;;;;;;;1.58;1.05;;;15.20;59.50;;;;;;4995524;28;20626;-87
2022/05/16 05:09:17;;;;;;;2.30;1.05;;;15.90;57.70;;;;;;4994878;28;20049;-86
2022/05/16 05:14:32;;;;;;;1.90;1.00;;;16.20;53.70;;;;;;4995724;28;20036;-86
2022/05/16 05:17:10;;;;;;;2.25;0.68;;;16.00;55.00;;;;;;4996107;28;20061;-87
2022/05/16 05:19:40;;;;;;;2.50;1.05;;;15.80;54.20;;;;;;4996229;28;20041;-88
2022/05/16 05:22:06;;;;;;;3.95;0.90;;;15.80;54.30;;;;;;4998260;28;20026;-87
2022/05/16 05:24:32;;;;;;;0.70;0.70;;;16.30;54.00;;;;;;4979930;28;20029;-87
2022/05/16 05:26:58;;;;;;;1.90;0.70;;;16.60;52.70;;;;;;4995080;28;20026;-87
2022/05/16 05:29:25;;;;;;;1.13;0.70;;;16.80;52.00;;;;;;4994849;28;20058;-85
2022/05/16 05:31:51;;;;;;;4.32;1.25;;;17.20;52.00;;;;;;5010611;28;20036;-89
2022/05/16 05:34:17;;;;;;;2.22;0.90;;;17.90;50.30;;;;;;5013774;28;20406;-86
2022/05/16 05:36:43;;;;;;;3.05;0.80;;;17.70;49.10;;;;;;5008642;28;20053;-87
2022/05/16 05:39:13;;;;;;;2.15;0.80;;;17.70;49.40;;;;;;4994692;28;20531;-89
2022/05/16 05:41:40;;;;;;;0.93;0.57;;;17.60;48.30;;;;;;4994865;28;20073;-88
2022/05/16 05:44:05;;;;;;;2.10;0.80;;;16.60;49.00;;;;;;4997595;28;20029;-88
2022/05/16 05:46:39;;;;;;;0.75;0.45;;;16.10;50.80;;;;;;5006175;28;20474;-88
2022/05/16 05:49:06;;;;;;;1.38;0.90;;;16.50;51.60;;;;;;4996603;28;20030;-89
2022/05/16 05:51:32;;;;;;;1.45;0.75;;;17.30;49.40;;;;;;5018262;28;20018;-87
2022/05/16 05:53:58;;;;;;;0.80;0.70;;;17.80;48.20;;;;;;4999284;28;20033;-84
2022/05/16 05:56:24;;;;;;;1.35;0.57;;;18.50;47.00;;;;;;4993921;28;20034;-86
2022/05/16 05:58:50;;;;;;;2.67;1.65;;;19.40;45.70;;;;;;4977659;28;20038;-85
2022/05/16 06:01:16;;;;;;;0.80;0.60;;;19.80;44.10;;;;;;4978113;28;20366;-85
2022/05/16 06:03:42;;;;;;;3.33;0.70;;;19.00;44.20;;;;;;4994385;28;20038;-85
2022/05/16 06:06:07;;;;;;;2.85;1.20;;;17.80;46.10;;;;;;4995706;28;20045;-85
2022/05/16 06:08:33;;;;;;;1.23;0.80;;;16.60;48.20;;;;;;4996193;28;20022;-83
2022/05/16 06:11:00;;;;;;;2.97;1.02;;;15.80;50.30;;;;;;4990170;28;20014;-85
2022/05/16 06:13:28;;;;;;;1.08;0.73;;;15.40;51.20;;;;;;4993770;28;20022;-84
2022/05/16 06:15:54;;;;;;;4.75;1.00;;;14.90;52.20;;;;;;4993231;28;20038;-84
2022/05/16 06:18:20;;;;;;;6.13;1.83;;;14.60;52.60;;;;;;4988774;28;20030;-87
2022/05/16 06:20:46;;;;;;;3.50;0.73;;;14.70;53.60;;;;;;5013137;28;20491;-87
2022/05/16 06:23:12;;;;;;;4.68;1.75;;;14.70;53.00;;;;;;5013808;28;20026;-88
2022/05/16 06:25:42;;;;;;;1.98;0.80;;;14.70;53.00;;;;;;5014768;28;20076;-88
2022/05/16 06:28:28;;;;;;;3.15;1.17;;;14.70;53.20;;;;;;5009979;28;20026;-87
2022/05/16 06:30:56;;;;;;;3.13;0.80;;;14.90;53.00;;;;;;5011200;28;20043;-83
2022/05/16 06:33:25;;;;;;;6.82;1.15;;;15.50;52.30;;;;;;5028699;28;20133;-86
2022/05/16 06:35:52;;;;;;;2.60;0.90;;;16.70;50.50;;;;;;5016788;28;20161;-86
2022/05/16 06:38:20;;;;;;;1.80;0.65;;;17.40;48.30;;;;;;5016054;28;20406;-87
2022/05/16 06:40:47;;;;;;;0.90;0.68;;;17.10;48.00;;;;;;5013864;28;20038;-85
2022/05/16 06:43:14;;;;;;;1.88;0.63;;;17.10;48.10;;;;;;5013248;28;20018;-88
2022/05/16 06:45:41;;;;;;;2.95;0.70;;;17.50;47.90;;;;;;4997919;28;20128;-86
2022/05/16 06:48:07;;;;;;;4.40;0.77;;;18.80;46.20;;;;;;4995027;28;20379;-85
2022/05/16 06:50:34;;;;;;;1.05;0.73;;;19.10;43.80;;;;;;4996783;28;20054;-87
2022/05/16 06:53:02;;;;;;;4.13;0.95;;;19.30;43.20;;;;;;5008221;28;20014;-85
2022/05/16 06:55:28;;;;;;;3.72;0.93;;;20.20;43.00;;;;;;5013258;28;20484;-83
2022/05/16 06:57:53;;;;;;;0.98;0.75;;;21.60;40.50;;;;;;4996511;28;20023;-85
2022/05/16 07:00:19;;;;;;;2.63;0.85;;;21.10;39.10;;;;;;5004212;28;20046;-85
2022/05/16 07:02:46;;;;;;;4.75;2.05;;;20.00;40.30;;;;;;5000390;28;20484;-85
2022/05/16 07:05:12;;;;;;;5.07;0.70;;;19.90;41.10;;;;;;5014217;28;20034;-86
2022/05/16 07:07:38;;;;;;;1.08;0.65;;;19.90;40.80;;;;;;5000699;28;20479;-86
2022/05/16 07:10:05;;;;;;;1.67;0.70;;;19.60;40.80;;;;;;5000654;28;20041;-86
2022/05/16 07:12:31;;;;;;;0.73;0.50;;;20.60;40.40;;;;;;5016756;28;20033;-86
2022/05/16 07:14:58;;;;;;;1.45;1.02;;;22.60;38.30;;;;;;5017736;28;20025;-85
2022/05/16 07:17:23;;;;;;;0.70;0.30;;;23.40;36.30;;;;;;5003367;28;20030;-84
2022/05/16 07:19:49;;;;;;;1.48;0.80;;;24.20;35.20;;;;;;4997045;28;20039;-83
2022/05/16 07:22:19;;;;;;;1.58;0.77;;;24.70;34.50;;;;;;4998350;28;20030;-85
2022/05/16 07:24:46;;;;;;;2.20;1.52;;;24.90;33.70;;;;;;4998546;28;20356;-85
2022/05/16 07:29:57;;;;;;;1.90;0.90;;;23.20;34.40;;;;;;4998549;28;20117;-84
2022/05/16 07:32:23;;;;;;;1.02;0.60;;;21.10;37.00;;;;;;4998642;28;20388;-84
2022/05/16 07:34:49;;;;;;;2.97;1.00;;;19.60;39.20;;;;;;4982362;28;20514;-84
2022/05/16 07:37:15;;;;;;;4.60;1.40;;;18.40;41.70;;;;;;4999483;28;20031;-84
2022/05/16 07:39:41;;;;;;;2.88;1.27;;;17.70;42.90;;;;;;5018759;28;20038;-85
2022/05/16 07:42:09;;;;;;;5.47;3.10;;;17.70;43.40;;;;;;5018849;28;20029;-84
2022/05/16 07:44:36;;;;;;;1.15;0.80;;;18.80;42.90;;;;;;5018139;28;20026;-84
2022/05/16 07:47:03;;;;;;;1.95;0.80;;;20.60;40.70;;;;;;5017370;28;20494;-84
2022/05/16 07:49:29;;;;;;;2.17;0.88;;;21.00;38.80;;;;;;5017656;28;20124;-86
2022/05/16 07:51:55;;;;;;;1.27;0.73;;;21.40;38.10;;;;;;4998954;28;20428;-85
2022/05/16 07:54:21;;;;;;;3.72;0.93;;;20.70;38.00;;;;;;4998651;28;20547;-85
2022/05/16 07:56:47;;;;;;;1.52;0.50;;;19.20;40.00;;;;;;4999803;28;20026;-85
2022/05/16 07:59:13;;;;;;;2.53;0.82;;;17.90;41.80;;;;;;5017469;28;20113;-85
2022/05/16 08:01:39;;;;;;;2.00;0.50;;;16.80;43.90;;;;;;5019015;28;20475;-85
2022/05/16 08:04:06;;;;;;;2.70;0.85;;;16.10;45.50;;;;;;5000245;28;20049;-88
2022/05/16 08:06:33;;;;;;;1.25;0.68;;;15.40;48.00;;;;;;5001390;28;20026;-86
2022/05/16 08:11:44;;;;;;;2.10;0.82;;;14.70;49.10;;;;;;5015648;28;20511;-84
2022/05/16 08:14:11;;;;;;;0.75;0.52;;;14.40;50.00;;;;;;4998000;28;20060;-87
2022/05/16 08:16:37;;;;;;;2.15;1.02;;;14.40;49.60;;;;;;4997684;28;20029;-86
2022/05/16 08:19:04;;;;;;;4.53;2.23;;;14.40;50.10;;;;;;4996415;28;20034;-86
2022/05/16 08:21:30;;;;;;;2.60;1.10;;;14.60;49.80;;;;;;4995379;28;20431;-85
2022/05/16 08:23:56;;;;;;;3.40;1.10;;;14.90;49.50;;;;;;4996347;28;20030;-85
2022/05/16 08:26:22;;;;;;;1.65;0.98;;;15.10;48.80;;;;;;4996313;28;20101;-86
2022/05/16 08:28:48;;;;;;;2.13;0.70;;;15.20;48.40;;;;;;4996137;28;20477;-87
2022/05/16 08:31:14;;;;;;;1.83;0.85;;;15.10;48.20;;;;;;4995983;28;20061;-85
2022/05/16 08:33:40;;;;;;;1.02;0.60;;;15.20;48.40;;;;;;4999763;28;20026;-85
2022/05/16 08:42:02;;;;;;;2.83;0.90;;;15.40;47.80;;;;;;4995897;28;20065;-87
2022/05/16 08:44:35;;;;;;;5.47;0.93;;;15.20;48.00;;;;;;4987790;28;20030;-86
2022/05/16 08:47:00;;;;;;;3.40;1.05;;;15.10;48.90;;;;;;4978221;28;20085;-87
2022/05/16 08:49:39;;;;;;;4.65;1.20;;;15.30;48.30;;;;;;4995211;28;20392;-88
2022/05/16 08:52:33;;;;;;;5.25;1.20;;;15.40;48.60;;;;;;4995609;28;20022;-85
2022/05/16 08:55:22;;;;;;;5.05;2.25;;;15.60;48.70;;;;;;4977815;28;20026;-87
2022/05/16 08:58:11;;;;;;;1.65;0.90;;;16.50;48.30;;;;;;4977321;28;20035;-87
2022/05/16 09:00:47;;;;;;;2.10;0.90;;;17.30;45.90;;;;;;4994836;28;20522;-87
2022/05/16 09:03:18;;;;;;;1.55;0.82;;;19.40;43.20;;;;;;4979594;28;20072;-86
2022/05/16 09:05:58;;;;;;;2.13;1.10;;;21.80;39.80;;;;;;5000844;28;20037;-86
2022/05/16 09:08:52;;;;;;;3.08;1.20;;;24.00;36.60;;;;;;5014510;28;20048;-88
2022/05/16 09:11:26;;;;;;;1.77;0.63;;;25.10;35.20;;;;;;4993560;28;20121;-88
2022/05/16 09:13:58;;;;;;;2.38;1.23;;;24.80;34.00;;;;;;4981021;28;20029;-86
2022/05/16 09:16:53;;;;;;;2.70;0.77;;;23.50;35.20;;;;;;4995905;28;20034;-85
2022/05/16 09:19:34;;;;;;;1.70;0.80;;;22.00;35.80;;;;;;4998018;28;20513;-84
2022/05/16 09:22:18;;;;;;;1.48;1.00;;;20.20;38.80;;;;;;5016588;28;20026;-85
2022/05/16 09:24:50;;;;;;;4.53;0.95;;;19.30;40.30;;;;;;5015362;28;20040;-86
2022/05/16 09:30:25;;;;;;;1.35;0.98;;;18.00;41.20;;;;;;4958239;28;20112;-85
2022/05/16 09:32:58;;;;;;;1.58;0.80;;;17.30;42.90;;;;;;4995202;28;20026;-85
2022/05/16 09:35:42;;;;;;;3.83;1.23;;;16.80;43.40;;;;;;4989133;28;20102;-86
2022/05/16 09:38:09;;;;;;;3.42;1.30;;;16.60;44.80;;;;;;5015175;28;20036;-86
2022/05/16 09:40:37;;;;;;;;;;;18.40;44.30;;;;;;5015417;28;20038;-88
2022/05/16 09:43:24;;;;;;;2.35;0.73;;;20.60;41.20;;;;;;5020676;28;19905;-86
2022/05/16 09:45:54;;;;;;;3.10;1.38;;;20.30;38.70;;;;;;5013788;28;20118;-86
2022/05/16 09:48:23;;;;;;;7.15;0.90;;;19.10;40.20;;;;;;4995737;28;20026;-85
2022/05/16 09:50:58;;;;;;;2.38;1.30;;;17.80;41.70;;;;;;4992075;28;20030;-85
2022/05/16 09:53:32;;;;;;;3.38;1.33;;;16.70;45.70;;;;;;4994058;28;20385;-85
2022/05/16 09:56:05;;;;;;;4.32;0.98;;;15.40;49.60;;;;;;4993602;28;20018;-87
2022/05/16 09:58:50;;;;;;;2.28;1.20;;;14.30;52.00;;;;;;4976301;28;20030;-87
2022/05/16 10:01:43;;;;;;;6.25;1.10;;;13.60;53.70;;;;;;4994095;28;20114;-87
2022/05/16 10:04:20;;;;;;;4.13;1.27;;;13.20;55.30;;;;;;4989608;28;20053;-86
2022/05/16 10:06:58;;;;;;;1.45;0.90;;;13.00;55.80;;;;;;4993000;28;20051;-88
2022/05/16 10:09:33;;;;;;;5.28;3.28;;;13.10;56.20;;;;;;5009160;28;20038;-86
2022/05/16 10:12:00;;;;;;;2.92;1.38;;;13.20;58.40;;;;;;5012116;28;20018;-86
2022/05/16 10:14:26;;;;;;;3.80;1.37;;;13.60;57.30;;;;;;4993977;28;20080;-86
2022/05/16 10:16:53;;;;;;;3.13;1.50;;;14.70;56.10;;;;;;4992284;28;20274;-90
2022/05/16 10:19:24;;;;;;;3.95;1.02;;;16.40;52.80;;;;;;4992270;28;20491;-86
2022/05/16 10:22:17;;;;;;;2.65;1.33;;;17.30;48.80;;;;;;4993256;28;20045;-86
2022/05/16 10:24:52;;;;;;;3.45;1.17;;;18.50;45.70;;;;;;4992222;28;20069;-86
2022/05/16 10:27:28;;;;;;;2.35;0.95;;;18.10;45.50;;;;;;4991980;28;20471;-85
2022/05/16 10:29:57;;;;;;;5.00;1.13;;;17.40;44.50;;;;;;4992909;28;20108;-87
2022/05/16 10:35:29;;;;;;;3.47;1.30;;;16.30;45.40;;;;;;4994717;28;20033;-85
2022/05/16 10:37:59;;;;;;;2.22;0.95;;;15.90;47.00;;;;;;4975783;28;20019;-84
2022/05/16 10:40:40;;;;;;;2.92;0.88;;;15.80;47.60;;;;;;4977389;28;20045;-85
2022/05/16 10:43:51;;;;;;;1.70;0.90;;;15.80;46.80;;;;;;5021037;28;20037;-85
2022/05/16 10:46:21;;;;;;;1.30;0.70;;;15.90;46.60;;;;;;5004427;28;20038;-86
2022/05/16 10:48:58;;;;;;;2.40;0.80;;;15.80;45.80;;;;;;5013826;28;20034;-87
2022/05/16 10:51:45;;;;;;;2.22;0.88;;;15.50;46.80;;;;;;5013513;28;20029;-87
2022/05/16 10:54:22;;;;;;;1.77;0.90;;;15.30;46.10;;;;;;4996302;28;20022;-87
2022/05/16 10:56:54;;;;;;;3.35;1.05;;;15.00;45.80;;;;;;4994382;28;20076;-87
2022/05/16 10:59:41;;;;;;;0.55;0.40;;;14.90;47.50;;;;;;5012895;28;20104;-84
2022/05/16 11:02:32;;;;;;;4.05;1.08;;;14.80;47.20;;;;;;5014384;28;20049;-88
2022/05/16 11:05:17;;;;;;;2.90;1.33;;;14.60;47.90;;;;;;5012690;28;20022;-87
2022/05/16 11:08:15;;;;;;;1.60;0.73;;;14.70;49.10;;;;;;5012835;28;20030;-84
2022/05/16 11:10:56;;;;;;;4.78;1.38;;;14.90;49.00;;;;;;4997302;28;20072;-85
2022/05/16 11:13:51;;;;;;;2.15;1.10;;;15.00;49.20;;;;;;5016375;28;20072;-85
2022/05/16 11:16:31;;;;;;;2.05;0.93;;;15.30;49.60;;;;;;4994011;28;20027;-85
2022/05/16 11:19:22;;;;;;;2.95;1.10;;;15.40;48.50;;;;;;4996719;28;20027;-87
2022/05/16 11:22:13;;;;;;;2.60;1.10;;;15.30;48.80;;;;;;4997709;28;20034;-86
2022/05/16 11:24:51;;;;;;;4.60;1.88;;;15.10;49.90;;;;;;5003942;28;20018;-85
2022/05/16 11:27:38;;;;;;;1.80;1.17;;;15.10;51.40;;;;;;5008358;28;20105;-85
2022/05/16 11:30:12;;;;;;;4.15;1.27;;;15.00;53.00;;;;;;4998571;28;20088;-86
2022/05/16 11:32:45;;;;;;;8.35;4.07;;;15.20;53.90;;;;;;5013797;28;20030;-85
2022/05/16 11:35:40;;;;;;;2.97;1.75;;;15.50;54.50;;;;;;5014131;28;20452;-85
2022/05/16 11:38:38;;;;;;;1.85;1.20;;;15.90;51.40;;;;;;4997101;28;20062;-87
2022/05/16 11:41:41;;;;;;;3.90;1.00;;;15.70;50.70;;;;;;5016571;28;20053;-88
2022/05/16 11:44:44;;;;;;;5.05;1.10;;;15.50;49.80;;;;;;5016871;28;20077;-85
2022/05/16 11:47:19;;;;;;;1.77;0.80;;;15.20;48.50;;;;;;5019551;28;20392;-86
2022/05/16 11:49:51;;;;;;;2.17;0.52;;;15.20;48.40;;;;;;5019972;28;20060;-85
2022/05/16 11:52:23;;;;;;;2.47;0.95;;;15.20;47.70;;;;;;4998629;28;20088;-84
2022/05/16 12:00:50;;;;;;;1.77;0.95;;;15.40;47.50;;;;;;5016086;28;20092;-86
2022/05/16 12:03:19;;;;;;;1.23;0.52;;;15.20;47.60;;;;;;5010363;28;20033;-86
2022/05/16 12:05:52;;;;;;;2.58;1.10;;;15.10;46.50;;;;;;4998524;28;20026;-86
2022/05/16 12:08:40;;;;;;;5.95;1.20;;;15.10;46.20;;;;;;4996491;28;20100;-86
2022/05/16 12:11:06;;;;;;;2.42;0.55;;;15.30;46.00;;;;;;4980885;28;20483;-87
2022/05/16 12:13:35;;;;;;;3.97;0.90;;;15.60;44.90;;;;;;4997605;28;20032;-86
2022/05/16 12:16:28;;;;;;;3.40;0.60;;;15.60;43.60;;;;;;4997500;28;20030;-84
2022/05/16 12:19:32;;;;;;;3.05;1.00;;;15.70;43.00;;;;;;4996186;28;20085;-84
2022/05/16 12:22:05;;;;;;;1.95;0.73;;;15.70;43.40;;;;;;4955872;29;20428;-87
2022/05/16 12:24:53;;;;;;;2.45;0.52;;;15.80;42.90;;;;;;4991812;28;20111;-85
2022/05/16 12:27:42;;;;;;;3.15;0.88;;;15.80;43.40;;;;;;4996973;28;20033;-84
2022/05/16 12:30:22;;;;;;;1.27;0.70;;;15.90;43.70;;;;;;4997570;28;20514;-86
2022/05/16 12:32:51;;;;;;;3.25;0.73;;;15.90;43.70;;;;;;4985525;28;20388;-84
2022/05/16 12:35:27;;;;;;;2.03;0.80;;;15.90;43.70;;;;;;4996016;28;20117;-88
2022/05/16 12:37:53;;;;;;;2.58;0.60;;;15.80;44.10;;;;;;4995222;28;20027;-87
2022/05/16 12:40:57;;;;;;;3.58;1.40;;;15.80;44.90;;;;;;4995282;28;20400;-84
2022/05/16 12:43:32;;;;;;;4.07;1.30;;;15.80;45.50;;;;;;4995251;28;20030;-86
2022/05/16 12:46:21;;;;;;;14.32;3.97;;;15.90;45.20;;;;;;4995692;28;20046;-86
2022/05/16 12:49:05;;;;;;;2.08;0.75;;;16.00;45.30;;;;;;4978440;28;20416;-88
2022/05/16 12:51:56;;;;;;;1.48;0.70;;;16.00;44.90;;;;;;5003313;28;20030;-84
2022/05/16 12:54:59;;;;;;;4.18;0.93;;;15.80;45.30;;;;;;5000999;28;20080;-87
2022/05/16 12:57:47;;;;;;;5.10;1.33;;;15.50;46.20;;;;;;5033203;28;20026;-85
2022/05/16 13:00:21;;;;;;;3.92;1.08;;;15.50;46.70;;;;;;5020066;28;20391;-85
2022/05/16 13:03:05;;;;;;;3.13;1.20;;;15.50;45.70;;;;;;4997230;28;20032;-86
2022/05/16 13:05:45;;;;;;;1.80;0.88;;;15.60;45.80;;;;;;5013577;28;20033;-85
2022/05/16 13:08:23;;;;;;;1.13;0.68;;;15.60;45.40;;;;;;4993701;28;20030;-85
2022/05/16 13:10:56;;;;;;;2.13;0.50;;;15.50;45.00;;;;;;4976919;28;20081;-84
2022/05/16 13:13:40;;;;;;;0.50;0.50;;;15.40;44.90;;;;;;4993530;28;20037;-85
2022/05/16 13:16:23;;;;;;;1.17;0.60;;;15.50;45.20;;;;;;4994516;28;20030;-86
2022/05/16 13:18:55;;;;;;;1.83;0.80;;;15.70;45.10;;;;;;4994983;28;20476;-85
2022/05/16 13:21:33;;;;;;;1.73;0.77;;;16.00;44.60;;;;;;4993554;28;20113;-86
2022/05/16 13:23:58;;;;;;;3.30;0.82;;;16.10;44.20;;;;;;5007609;28;20105;-84
2022/05/16 13:29:23;;;;;;;1.02;0.70;;;16.50;42.80;;;;;;4980297;28;20050;-86
2022/05/16 13:31:55;;;;;;;3.05;0.80;;;16.70;43.00;;;;;;4999279;28;20038;-86
2022/05/16 13:34:36;;;;;;;2.47;0.57;;;16.70;42.90;;;;;;5011753;28;20018;-85
2022/05/16 13:37:06;;;;;;;1.17;0.65;;;16.70;42.80;;;;;;4989802;28;20041;-86
2022/05/16 13:39:41;;;;;;;1.42;0.50;;;17.00;43.00;;;;;;5001094;28;20034;-85
2022/05/16 13:42:07;;;;;;;1.60;0.63;;;17.90;42.10;;;;;;4998356;28;20034;-86
2022/05/16 13:44:47;;;;;;;3.42;0.90;;;18.80;40.80;;;;;;4997205;28;20026;-85
2022/05/16 13:47:18;;;;;;;4.78;0.80;;;19.60;40.00;;;;;;4995950;28;20026;-86
2022/05/16 13:49:44;;;;;;;1.13;0.60;;;20.20;38.90;;;;;;4994869;28;20121;-86
2022/05/16 13:52:28;;;;;;;2.90;0.73;;;20.70;38.50;;;;;;4994354;28;20200;-84